Time,TemperatureF,DewpointF,PressureIn,WindDirection,WindDirectionDegrees,WindSpeedMPH,WindSpeedGustMPH,Humidity,HourlyPrecipIn,Conditions,Clouds,dailyrainin,SoftwareType,DateUTC
2013-03-11 00:06:00,36.1,34.0,30.27,SSE,165,0.0,0.0,92,0.00,,,0.00,meteobridge,2013-03-11 07:06:00,
2013-03-11 00:21:00,36.1,34.0,30.27,ESE,123,0.0,0.0,92,0.00,,,0.00,meteobridge,2013-03-11 07:21:00,
2013-03-11 00:36:00,36.0,33.8,30.27,SSE,153,0.0,0.0,92,0.00,,,0.00,meteobridge,2013-03-11 07:36:00,
2013-03-11 00:52:00,36.1,34.0,30.27,WSW,243,0.0,0.9,92,0.00,,,0.00,meteobridge,2013-03-11 07:52:00,
2013-03-11 01:06:00,36.0,33.8,30.27,SE,144,4.0,6.0,92,0.00,,,0.00,meteobridge,2013-03-11 08:06:00,
2013-03-11 01:21:00,36.9,34.5,30.28,SSE,165,0.0,0.9,91,0.00,,,0.00,meteobridge,2013-03-11 08:21:00,
2013-03-11 01:36:00,37.0,34.3,30.28,SSW,202,2.0,4.0,90,0.00,,,0.00,meteobridge,2013-03-11 08:36:00,
2013-03-11 01:52:00,36.7,34.3,30.29,SE,133,0.0,0.9,91,0.00,,,0.00,meteobridge,2013-03-11 08:52:00,
2013-03-11 02:07:00,36.9,34.5,30.29,SSE,160,0.0,0.9,91,0.00,,,0.00,meteobridge,2013-03-11 09:07:00,
2013-03-11 02:22:00,36.7,34.3,30.29,South,176,0.9,0.9,91,0.00,,,0.00,meteobridge,2013-03-11 09:22:00,
2013-03-11 02:37:00,36.7,34.3,30.30,SE,142,2.0,2.0,91,0.00,,,0.00,meteobridge,2013-03-11 09:37:00,
2013-03-11 02:52:00,36.7,34.5,30.30,NW,323,0.0,0.9,92,0.00,,,0.00,meteobridge,2013-03-11 09:52:00,
2013-03-11 03:07:00,36.1,34.0,30.30,WNW,285,0.0,0.0,92,0.00,,,0.00,meteobridge,2013-03-11 10:07:00,
2013-03-11 03:23:00,35.4,33.6,30.29,WNW,285,0.0,0.0,93,0.00,,,0.00,meteobridge,2013-03-11 10:23:00,
2013-03-11 03:38:00,34.9,33.3,30.29,WNW,285,0.0,0.0,94,0.00,,,0.00,meteobridge,2013-03-11 10:38:00,
2013-03-11 03:53:00,34.2,32.5,30.29,WNW,285,0.0,0.0,94,0.00,,,0.00,meteobridge,2013-03-11 10:53:00,
2013-03-11 04:08:00,33.4,32.4,30.29,WNW,285,0.0,0.0,96,0.00,,,0.00,meteobridge,2013-03-11 11:08:00,
2013-03-11 04:24:00,33.4,32.4,30.29,WNW,285,0.0,0.0,96,0.00,,,0.00,meteobridge,2013-03-11 11:24:00,
2013-03-11 04:39:00,32.9,31.8,30.30,WNW,285,0.0,0.0,96,0.00,,,0.00,meteobridge,2013-03-11 11:39:00,
2013-03-11 04:54:00,32.5,31.5,30.30,WNW,285,0.0,0.0,96,0.00,,,0.00,meteobridge,2013-03-11 11:54:00,
2013-03-11 05:09:00,32.5,31.8,30.29,WNW,285,0.0,0.0,97,0.00,,,0.00,meteobridge,2013-03-11 12:09:00,
2013-03-11 05:24:00,32.4,31.6,30.30,ESE,120,0.0,0.0,97,0.00,,,0.00,meteobridge,2013-03-11 12:24:00,
2013-03-11 05:40:00,32.7,32.0,30.30,SE,134,0.0,0.0,97,0.00,,,0.00,meteobridge,2013-03-11 12:40:00,
2013-03-11 05:55:00,32.7,32.0,30.31,SE,134,0.0,0.0,97,0.00,,,0.00,meteobridge,2013-03-11 12:55:00,
2013-03-11 06:10:00,32.9,32.2,30.31,South,169,0.0,0.0,97,0.00,,,0.00,meteobridge,2013-03-11 13:10:00,
2013-03-11 06:25:00,32.7,32.0,30.31,South,169,0.0,0.0,97,0.00,,,0.00,meteobridge,2013-03-11 13:25:00,
2013-03-11 06:40:00,32.7,32.0,30.31,South,169,0.0,0.0,97,0.00,,,0.00,meteobridge,2013-03-11 13:40:00,
2013-03-11 06:56:00,32.5,31.8,30.32,South,169,0.0,0.0,97,0.00,,,0.00,meteobridge,2013-03-11 13:56:00,
2013-03-11 07:11:00,32.2,31.5,30.32,South,169,0.0,0.0,97,0.00,,,0.00,meteobridge,2013-03-11 14:11:00,
2013-03-11 07:26:00,32.0,31.3,30.33,South,169,0.0,0.0,97,0.00,,,0.00,meteobridge,2013-03-11 14:26:00,
2013-03-11 07:41:00,31.6,30.9,30.33,South,169,0.0,0.0,97,0.00,,,0.00,meteobridge,2013-03-11 14:41:00,
2013-03-11 07:56:00,31.8,31.1,30.33,South,169,0.0,0.0,97,0.00,,,0.00,meteobridge,2013-03-11 14:56:00,
2013-03-11 08:11:00,32.2,31.6,30.34,South,169,0.0,0.0,98,0.00,,,0.00,meteobridge,2013-03-11 15:11:00,
2013-03-11 08:27:00,32.5,32.0,30.34,South,169,0.0,0.0,98,0.00,,,0.00,meteobridge,2013-03-11 15:27:00,
2013-03-11 08:43:00,33.3,32.5,30.35,South,169,0.0,0.0,97,0.00,,,0.00,meteobridge,2013-03-11 15:43:00,
2013-03-11 08:58:00,34.2,32.9,30.35,South,169,0.0,0.0,95,0.00,,,0.00,meteobridge,2013-03-11 15:58:00,
2013-03-11 09:13:00,35.1,33.3,30.35,SE,145,0.0,0.9,93,0.00,,,0.00,meteobridge,2013-03-11 16:13:00,
2013-03-11 09:28:00,36.0,33.8,30.35,WNW,294,0.0,0.9,92,0.00,,,0.00,meteobridge,2013-03-11 16:28:00,
2013-03-11 09:43:00,36.7,34.0,30.35,WNW,293,0.0,0.0,90,0.00,,,0.00,meteobridge,2013-03-11 16:43:00,
2013-03-11 09:58:00,37.6,34.7,30.35,WNW,287,0.0,0.0,89,0.00,,,0.00,meteobridge,2013-03-11 16:58:00,
2013-03-11 10:13:00,37.9,35.1,30.35,WNW,287,0.0,0.0,89,0.00,,,0.00,meteobridge,2013-03-11 17:13:00,
2013-03-11 10:29:00,38.3,35.1,30.35,North,8,0.0,0.9,88,0.00,,,0.00,meteobridge,2013-03-11 17:29:00,
2013-03-11 10:44:00,39.0,35.4,30.35,NW,311,0.9,0.9,87,0.00,,,0.00,meteobridge,2013-03-11 17:44:00,
2013-03-11 10:59:00,39.9,35.4,30.35,ENE,64,0.0,0.9,84,0.00,,,0.00,meteobridge,2013-03-11 17:59:00,
2013-03-11 11:14:00,40.8,34.5,30.35,NNE,29,0.0,2.0,78,0.00,,,0.00,meteobridge,2013-03-11 18:14:00,
2013-03-11 11:29:00,42.3,32.2,30.34,East,89,0.0,0.9,67,0.00,,,0.00,meteobridge,2013-03-11 18:29:00,
2013-03-11 11:44:00,43.5,32.2,30.34,NE,45,0.0,2.0,64,0.00,,,0.00,meteobridge,2013-03-11 18:44:00,
2013-03-11 12:00:00,44.1,31.1,30.34,SE,139,0.0,0.9,60,0.00,,,0.00,meteobridge,2013-03-11 19:00:00,
2013-03-11 12:14:00,44.4,29.7,30.34,NNW,346,2.0,2.0,56,0.00,,,0.00,meteobridge,2013-03-11 19:14:00,
2013-03-11 12:29:00,44.8,27.7,30.34,North,349,2.9,2.9,51,0.00,,,0.00,meteobridge,2013-03-11 19:29:00,
2013-03-11 12:44:00,45.7,29.5,30.33,NNE,22,0.0,0.9,53,0.00,,,0.00,meteobridge,2013-03-11 19:44:00,
2013-03-11 12:59:00,45.1,28.0,30.33,North,5,0.0,2.0,51,0.00,,,0.00,meteobridge,2013-03-11 19:59:00,
2013-03-11 13:15:00,45.7,27.1,30.33,SSW,203,0.0,4.0,48,0.00,,,0.00,meteobridge,2013-03-11 20:15:00,
2013-03-11 13:30:00,46.0,27.0,30.33,SSE,153,0.0,0.9,47,0.00,,,0.00,meteobridge,2013-03-11 20:30:00,
2013-03-11 13:45:00,46.2,25.5,30.32,WNW,282,0.9,0.9,44,0.00,,,0.00,meteobridge,2013-03-11 20:45:00,
2013-03-11 14:00:00,46.6,24.1,30.32,ENE,58,0.0,2.9,41,0.00,,,0.00,meteobridge,2013-03-11 21:00:00,
2013-03-11 14:15:00,46.8,24.3,30.31,WNW,290,0.0,2.0,41,0.00,,,0.00,meteobridge,2013-03-11 21:15:00,
2013-03-11 14:30:00,47.3,22.3,30.31,NNE,18,0.9,2.0,37,0.00,,,0.00,meteobridge,2013-03-11 21:30:00,
2013-03-11 14:45:00,47.5,21.9,30.30,North,356,0.9,0.9,36,0.00,,,0.00,meteobridge,2013-03-11 21:45:00,
2013-03-11 15:00:00,47.5,21.2,30.30,NNW,337,0.0,0.9,35,0.00,,,0.00,meteobridge,2013-03-11 22:00:00,
2013-03-11 15:15:00,47.8,22.1,30.30,WNW,300,0.9,2.0,36,0.00,,,0.00,meteobridge,2013-03-11 22:15:00,
2013-03-11 15:30:00,47.8,20.8,30.30,WNW,302,4.0,4.0,34,0.00,,,0.00,meteobridge,2013-03-11 22:30:00,
2013-03-11 15:45:00,48.6,19.9,30.29,West,271,2.0,2.0,32,0.00,,,0.00,meteobridge,2013-03-11 22:45:00,
2013-03-11 16:00:00,48.6,19.9,30.29,North,2,0.0,2.0,32,0.00,,,0.00,meteobridge,2013-03-11 23:00:00,
2013-03-11 16:15:00,48.6,20.8,30.29,NW,304,0.0,0.9,33,0.00,,,0.00,meteobridge,2013-03-11 23:15:00,
2013-03-11 16:30:00,48.6,20.8,30.29,WSW,257,0.0,0.9,33,0.00,,,0.00,meteobridge,2013-03-11 23:30:00,
2013-03-11 16:45:00,48.6,21.4,30.29,WSW,253,0.0,2.9,34,0.00,,,0.00,meteobridge,2013-03-11 23:45:00,
2013-03-11 17:00:00,49.3,21.4,30.28,WNW,299,0.9,0.9,33,0.00,,,0.00,meteobridge,2013-03-12 00:00:00,
2013-03-11 17:15:00,48.9,22.5,30.28,WNW,294,0.9,0.9,35,0.00,,,0.00,meteobridge,2013-03-12 00:15:00,
2013-03-11 17:30:00,47.8,20.1,30.28,West,273,0.0,2.0,33,0.00,,,0.00,meteobridge,2013-03-12 00:30:00,
2013-03-11 17:45:00,47.1,19.4,30.28,NNW,328,0.0,0.9,33,0.00,,,0.00,meteobridge,2013-03-12 00:45:00,
2013-03-11 18:00:00,46.8,20.5,30.28,WNW,286,0.0,0.0,35,0.00,,,0.00,meteobridge,2013-03-12 01:00:00,
2013-03-11 18:16:00,46.2,20.7,30.28,West,277,0.0,0.0,36,0.00,,,0.00,meteobridge,2013-03-12 01:16:00,
2013-03-11 19:01:00,42.3,23.0,30.27,West,277,0.0,0.0,46,0.00,,,0.00,meteobridge,2013-03-12 02:01:00,
2013-03-11 19:16:00,41.7,24.4,30.27,WSW,240,0.0,0.0,50,0.00,,,0.00,meteobridge,2013-03-12 02:16:00,
2013-03-11 19:31:00,41.2,24.8,30.27,WSW,240,0.0,0.0,52,0.00,,,0.00,meteobridge,2013-03-12 02:31:00,
2013-03-11 19:46:00,40.6,24.8,30.27,SSW,197,0.0,0.0,53,0.00,,,0.00,meteobridge,2013-03-12 02:46:00,
2013-03-11 20:01:00,40.5,25.2,30.27,SSE,160,0.0,0.0,54,0.00,,,0.00,meteobridge,2013-03-12 03:01:00,
2013-03-11 20:17:00,39.7,25.3,30.27,SSE,160,0.0,0.0,56,0.00,,,0.00,meteobridge,2013-03-12 03:17:00,
2013-03-11 20:32:00,39.4,25.0,30.27,SSE,160,0.0,0.0,56,0.00,,,0.00,meteobridge,2013-03-12 03:32:00,
2013-03-11 20:47:00,39.0,25.5,30.27,SSE,160,0.0,0.0,58,0.00,,,0.00,meteobridge,2013-03-12 03:47:00,
2013-03-11 21:02:00,38.5,25.9,30.26,SSE,160,0.0,0.0,60,0.00,,,0.00,meteobridge,2013-03-12 04:02:00,
2013-03-11 21:17:00,37.8,24.8,30.26,SSE,160,0.0,0.0,59,0.00,,,0.00,meteobridge,2013-03-12 04:17:00,
2013-03-11 21:32:00,37.9,25.7,30.26,SSE,160,0.0,0.0,61,0.00,,,0.00,meteobridge,2013-03-12 04:32:00,
2013-03-11 21:47:00,37.8,25.9,30.26,SSE,160,0.0,0.0,62,0.00,,,0.00,meteobridge,2013-03-12 04:47:00,
2013-03-11 22:02:00,37.9,26.1,30.26,SSE,160,0.0,0.0,62,0.00,,,0.00,meteobridge,2013-03-12 05:02:00,
2013-03-11 22:17:00,37.8,26.2,30.25,SSE,160,0.0,0.0,63,0.00,,,0.00,meteobridge,2013-03-12 05:17:00,
2013-03-11 22:32:00,37.6,25.7,30.25,SSE,160,0.0,0.0,62,0.00,,,0.00,meteobridge,2013-03-12 05:32:00,
2013-03-11 22:47:00,37.8,26.6,30.25,SSE,160,0.0,0.0,64,0.00,,,0.00,meteobridge,2013-03-12 05:47:00,
2013-03-11 23:03:00,37.9,26.8,30.25,SSE,160,0.0,0.0,64,0.00,,,0.00,meteobridge,2013-03-12 06:03:00,
2013-03-11 23:18:00,38.1,27.9,30.26,SSE,160,0.0,0.0,66,0.00,,,0.00,meteobridge,2013-03-12 06:18:00,
2013-03-11 23:33:00,38.5,27.7,30.26,NE,56,0.0,0.9,65,0.00,,,0.00,meteobridge,2013-03-12 06:33:00,
2013-03-11 23:48:00,38.3,27.5,30.25,NE,56,0.0,0.0,65,0.00,,,0.00,meteobridge,2013-03-12 06:48:00,